Stations météo

réclame
Mon MeteoGroup
Motril, Espagne (8485): Température de l'air & dewpoint: 13.01.2020 21:00:00 - 19.01.2020 21:00:00 (CET)Motril, Espagne (8485): Vitesse du vent & gusts: 13.01.2020 21:00:00 - 19.01.2020 21:00:00 (CET)Motril, Espagne (8485): Direction du vent: 13.01.2020 21:00:00 - 19.01.2020 21:00:00 (CET)Motril, Espagne (8485): reduced air pressure: 13.01.2020 21:00:00 - 19.01.2020 21:00:00 (CET)Motril, Espagne (8485): Quantités de précipitations: 13.01.2020 21:00:00 - 19.01.2020 21:00:00 (CET)
Date & Time tt [°C] td [°C] ff [km/h] ff [knt] fx [km/h] fx [knt] dd ppp [hPa] rr [mm]
19.01.2020 21:00:00 - - - - - - - - -
19.01.2020 20:00:00 13,4 4,3 9 5 24 13 N 1014,0 0,0
19.01.2020 19:00:00 13,8 4,3 15 8 26 14 N 1013,6 -
19.01.2020 18:00:00 14,3 4,3 13 7 34 18 NNW 1013,4 0,0
19.01.2020 17:00:00 15,5 5,1 16 9 42 23 N 1013,1 0,0
19.01.2020 16:00:00 14,4 4,3 24 13 53 28 N 1013,0 0,0
19.01.2020 15:00:00 17,5 5,5 13 7 40 22 NNW 1013,2 0,0
19.01.2020 14:00:00 16,5 4,8 19 10 43 23 NNW 1014,2 0,0
19.01.2020 13:00:00 17,9 6,1 15 8 40 22 NNW 1014,4 -
19.01.2020 12:00:00 15,9 6,5 16 8 46 25 N 1015,6 0,0
19.01.2020 11:00:00 15,8 6,2 14 8 53 29 NNW 1015,2 0,0
19.01.2020 10:00:00 15,1 5,8 17 9 60 32 NW 1015,5 0,0
19.01.2020 09:00:00 14,1 6,2 30 16 58 32 NW 1015,7 0,0
19.01.2020 08:00:00 14,3 5,6 16 8 35 19 NW 1016,6 0,0
19.01.2020 07:00:00 14,6 6,4 11 6 36 19 WNW 1016,5 -
19.01.2020 06:00:00 15,3 6,2 19 10 59 32 NW 1016,2 0,0
19.01.2020 05:00:00 16,3 6,1 24 13 49 27 NW 1016,8 0,0
19.01.2020 04:00:00 16,3 8,0 13 7 48 26 NNW 1017,3 0,0
19.01.2020 03:00:00 14,5 12,5 7 4 22 12 WNW 1019,0 0,0
19.01.2020 02:00:00 15,2 13,4 8 4 35 19 WNW 1020,2 0,0
19.01.2020 01:00:00 15,2 13,6 16 9 34 18 W 1021,4 -
19.01.2020 00:00:00 15,2 13,4 14 7 24 13 W 1022,5 0,0
18.01.2020 23:00:00 14,7 13,1 15 8 23 13 W 1023,6 0,0
18.01.2020 22:00:00 12,3 10,5 4 2 13 7 NNW 1024,6 0,0
18.01.2020 21:00:00 13,2 10,9 2 1 11 6 NNW 1025,7 0,0
18.01.2020 20:00:00 14,4 11,6 1 1 11 6 NW 1026,5 0,0
18.01.2020 19:00:00 14,9 11,7 5 3 22 12 W 1027,1 -
18.01.2020 18:00:00 15,0 11,2 10 5 20 11 WSW 1027,6 0,0
18.01.2020 17:00:00 15,1 12,4 8 4 16 9 WSW 1028,2 0,0
18.01.2020 16:00:00 15,2 12,1 5 3 14 8 W 1028,7 0,0
18.01.2020 15:00:00 15,8 11,2 4 2 16 9 W 1028,8 0,0
18.01.2020 14:00:00 14,5 12,3 4 2 7 4 S 1029,7 0,0
18.01.2020 13:00:00 14,5 11,8 4 2 7 4 ENE 1031,1 -
18.01.2020 12:00:00 15,0 10,8 3 1 7 4 N 1032,3 0,1
18.01.2020 11:00:00 16,8 9,9 1 0 6 3 N 1031,8 0,0
18.01.2020 10:00:00 12,7 8,5 3 1 8 4 NNE 1031,3 0,0
18.01.2020 09:00:00 12,1 8,0 2 1 6 3 N 1030,9 0,0
18.01.2020 08:00:00 11,4 7,6 1 1 5 3 N 1030,5 0,0
18.01.2020 07:00:00 11,4 7,6 1 1 7 4 WNW 1030,4 -
18.01.2020 06:00:00 10,5 6,8 5 3 8 4 NNW 1030,3 0,0
18.01.2020 05:00:00 11,5 8,1 5 3 7 4 ENE 1030,5 0,0
18.01.2020 04:00:00 11,7 7,8 6 4 10 5 N 1031,1 0,0
18.01.2020 03:00:00 12,3 7,8 4 2 11 6 ESE 1031,3 0,0
18.01.2020 02:00:00 14,2 8,8 4 2 9 5 WNW 1030,9 0,0
18.01.2020 01:00:00 14,2 7,4 8 4 18 10 ESE 1031,2 -
18.01.2020 00:00:00 16,4 8,4 5 3 28 15 NE 1031,2 0,0
17.01.2020 23:00:00 17,0 9,2 16 9 32 17 N 1031,2 0,0
17.01.2020 22:00:00 14,8 8,9 5 3 11 6 E 1031,2 0,0
17.01.2020 21:00:00 15,3 10,5 2 1 12 6 NW 1031,0 0,0
17.01.2020 20:00:00 13,7 11,4 2 1 10 5 E 1030,8 0,0
17.01.2020 19:00:00 14,6 11,9 5 3 13 7 NNE 1030,4 -
17.01.2020 18:00:00 16,5 13,1 9 5 18 10 S 1029,8 0,0
17.01.2020 17:00:00 17,1 13,1 9 5 26 14 SE 1029,3 0,0
17.01.2020 16:00:00 17,4 13,0 11 6 26 14 WSW 1028,7 0,0
17.01.2020 15:00:00 17,6 12,1 14 8 30 16 WSW 1028,8 0,0
17.01.2020 14:00:00 17,5 12,0 14 8 32 17 WSW 1029,3 0,0
17.01.2020 13:00:00 21,0 8,0 16 8 30 16 WNW 1030,0 -
17.01.2020 12:00:00 17,4 9,6 8 5 18 10 W 1031,2 0,0
17.01.2020 11:00:00 15,9 7,1 5 3 8 4 WSW 1031,7 0,0
17.01.2020 10:00:00 14,2 7,4 0 0 8 4 SE 1030,8 0,0
17.01.2020 09:00:00 10,6 6,7 3 2 12 6 E 1030,8 0,0
17.01.2020 08:00:00 9,6 6,2 2 1 7 4 SW 1030,3 0,0
17.01.2020 07:00:00 9,5 6,2 3 1 8 5 NNW 1029,9 -
17.01.2020 06:00:00 9,6 5,6 4 2 14 8 NNW 1029,3 0,0
17.01.2020 05:00:00 10,2 6,4 5 3 22 12 NNW 1029,5 0,0
17.01.2020 04:00:00 9,5 5,6 6 3 10 5 WNW 1029,9 0,0
17.01.2020 03:00:00 9,0 5,8 6 3 8 4 NNE 1030,0 0,0
17.01.2020 02:00:00 9,4 6,7 2 1 9 5 ENE 1030,1 0,0
17.01.2020 01:00:00 9,6 7,1 1 1 7 4 NNW 1030,0 -
17.01.2020 00:00:00 9,4 7,8 5 3 8 5 N 1030,4 0,0
16.01.2020 23:00:00 10,2 9,4 3 2 5 3 SE 1029,7 0,0
16.01.2020 22:00:00 10,5 9,7 0 0 8 4 WSW 1029,5 0,0
16.01.2020 21:00:00 10,9 9,9 4 2 7 4 ENE 1029,2 0,0
16.01.2020 20:00:00 12,1 10,6 4 2 9 5 NE 1029,0 0,0
16.01.2020 19:00:00 13,9 11,6 3 1 6 3 WNW 1028,7 -
16.01.2020 18:00:00 15,4 12,0 3 2 10 5 WSW 1028,0 0,0
16.01.2020 17:00:00 16,1 12,1 5 3 10 5 SSW 1027,8 0,0
16.01.2020 16:00:00 16,2 12,1 6 3 11 6 S 1027,5 0,0
16.01.2020 15:00:00 17,1 12,4 7 4 14 8 S 1027,8 0,0
16.01.2020 14:00:00 16,7 12,2 11 6 15 8 SE 1028,1 0,0
16.01.2020 13:00:00 17,2 11,0 8 5 13 7 SSE 1028,5 -
16.01.2020 12:00:00 19,4 10,9 4 2 6 3 SSE 1029,5 0,0
16.01.2020 11:00:00 19,6 8,9 1 1 3 1 S 1029,5 0,0
16.01.2020 10:00:00 15,9 7,8 0 0 5 3 NNE 1029,3 0,0
16.01.2020 09:00:00 10,0 5,5 3 2 6 4 NE 1028,8 0,0
16.01.2020 08:00:00 9,0 4,8 3 2 8 5 NE 1028,2 0,0
16.01.2020 07:00:00 8,3 4,5 4 2 10 5 NNE 1027,9 -
16.01.2020 06:00:00 8,9 4,6 1 1 6 3 NE 1027,6 0,0
16.01.2020 05:00:00 9,0 4,8 1 0 6 3 E 1027,8 0,0
16.01.2020 04:00:00 9,7 5,1 3 1 6 3 NE 1028,0 0,0
16.01.2020 03:00:00 8,8 5,5 3 2 6 3 NNE 1028,4 0,0
16.01.2020 02:00:00 9,0 5,9 2 1 6 4 NNW 1028,2 0,0
16.01.2020 01:00:00 10,3 5,9 3 2 9 5 NNE 1028,5 -
16.01.2020 00:00:00 10,2 7,1 4 2 9 5 NNE 1028,6 0,0
15.01.2020 23:00:00 9,6 8,5 3 1 7 4 E 1028,6 0,0
15.01.2020 22:00:00 10,1 8,4 1 1 7 4 NE 1028,6 0,0
15.01.2020 21:00:00 10,6 8,7 1 1 8 4 E 1028,5 0,0
15.01.2020 20:00:00 11,7 9,0 6 3 9 5 NNE 1028,5 0,0
15.01.2020 19:00:00 13,5 9,6 5 3 10 5 NE 1027,9 -
15.01.2020 18:00:00 15,4 10,2 5 3 8 4 SE 1027,5 0,0
15.01.2020 17:00:00 16,8 10,4 5 3 10 5 SSE 1026,8 0,0
15.01.2020 16:00:00 16,7 9,8 6 3 11 6 S 1026,6 0,0
15.01.2020 15:00:00 17,6 10,5 6 4 14 8 SE 1026,4 0,0
15.01.2020 14:00:00 16,6 10,0 11 6 17 9 SE 1026,7 0,0
15.01.2020 13:00:00 16,3 9,4 13 7 17 9 SE 1027,1 -
15.01.2020 12:00:00 19,4 8,7 3 1 8 5 SSE 1027,7 0,0
15.01.2020 11:00:00 19,6 10,5 0 0 6 3 S 1027,3 0,0
15.01.2020 10:00:00 13,4 7,0 4 2 9 5 NNE 1026,5 0,0
15.01.2020 09:00:00 8,6 4,8 5 3 8 4 N 1025,8 0,0
15.01.2020 08:00:00 8,4 4,5 0 0 5 3 S 1024,8 0,0
15.01.2020 07:00:00 9,5 5,1 2 1 9 5 SE 1024,1 -
15.01.2020 06:00:00 10,7 5,0 5 3 12 7 W 1023,6 0,0
15.01.2020 05:00:00 9,6 5,1 3 1 9 5 WSW 1023,4 0,0
15.01.2020 04:00:00 8,9 5,0 0 0 6 3 SE 1023,8 0,0
15.01.2020 03:00:00 9,2 5,0 0 0 8 4 NNW 1023,9 0,0
15.01.2020 02:00:00 10,4 5,1 5 3 9 5 W 1023,9 0,0
15.01.2020 01:00:00 11,5 5,6 3 2 7 4 NW 1024,1 -
15.01.2020 00:00:00 11,3 6,8 2 1 8 5 S 1024,0 0,0
14.01.2020 23:00:00 12,1 5,8 4 2 9 5 WNW 1024,1 0,0
14.01.2020 22:00:00 11,1 6,8 3 1 16 9 NE 1023,9 0,0
14.01.2020 21:00:00 12,1 8,3 5 3 11 6 WNW 1023,8 0,0
14.01.2020 20:00:00 11,5 8,4 2 1 6 4 WNW 1023,8 0,0
14.01.2020 19:00:00 13,4 9,0 3 2 18 10 N 1023,3 -
14.01.2020 18:00:00 14,8 9,4 10 5 24 13 W 1022,6 0,0
14.01.2020 17:00:00 15,2 9,8 11 6 26 14 WSW 1022,5 0,0
14.01.2020 16:00:00 15,1 9,2 16 9 29 16 WSW 1022,5 0,0
14.01.2020 15:00:00 15,0 9,2 15 8 28 15 WSW 1022,5 0,0
14.01.2020 14:00:00 15,9 9,3 9 5 24 13 W 1023,1 0,0
14.01.2020 13:00:00 14,5 8,0 11 6 21 11 W 1024,3 -
14.01.2020 12:00:00 14,9 6,2 9 5 18 10 W 1024,9 0,0
14.01.2020 11:00:00 19,5 7,6 0 0 6 3 S 1024,9 0,0
14.01.2020 10:00:00 12,1 5,0 3 2 11 6 N 1024,5 0,0
14.01.2020 09:00:00 7,5 3,4 5 3 9 5 NNE 1024,2 0,0
14.01.2020 08:00:00 7,7 3,9 3 1 7 4 W 1023,8 0,0
14.01.2020 07:00:00 7,6 4,5 2 1 8 5 ESE 1022,9 -
14.01.2020 06:00:00 8,0 4,3 1 1 8 4 SE 1022,5 0,0
14.01.2020 05:00:00 7,8 3,6 2 1 16 9 E 1022,4 0,0
14.01.2020 04:00:00 11,0 4,6 9 5 18 10 WNW 1022,8 0,0
14.01.2020 03:00:00 8,7 5,0 3 1 10 6 SSE 1022,9 0,0
14.01.2020 02:00:00 10,0 5,5 6 4 16 9 NW 1023,4 0,0
14.01.2020 01:00:00 11,5 8,1 6 4 11 6 WNW 1024,1 -
14.01.2020 00:00:00 10,2 6,8 5 3 12 7 NW 1024,5 0,0
13.01.2020 23:00:00 10,5 8,8 4 2 10 5 NW 1024,8 0,0
13.01.2020 22:00:00 10,8 9,2 5 3 11 6 NW 1024,8 0,0
13.01.2020 21:00:00 11,7 9,3 3 2 8 4 WNW 1025,4 0,0

tt = Température de l'air
td = dewpoint
ff = Vitesse du vent
fx = gusts
dd = Direction du vent
ppp = reduced air pressure
rr = Quantités de précipitations

stations d'obs. à proximité